sensor_id;sensor_type;location;lat;lon;timestamp;temperature;humidity
30520;DHT22;17300;50.374;8.006;2022-12-18T00:02:06;-0.10;49.60
30520;DHT22;17300;50.374;8.006;2022-12-18T00:04:33;-0.20;49.60
30520;DHT22;17300;50.374;8.006;2022-12-18T00:07:01;-0.10;49.90
30520;DHT22;17300;50.374;8.006;2022-12-18T00:09:28;-0.20;49.90
30520;DHT22;17300;50.374;8.006;2022-12-18T00:11:54;-0.10;50.10
30520;DHT22;17300;50.374;8.006;2022-12-18T00:14:21;-0.10;50.20
30520;DHT22;17300;50.374;8.006;2022-12-18T00:16:48;-0.10;50.20
30520;DHT22;17300;50.374;8.006;2022-12-18T00:19:15;-0.10;50.10
30520;DHT22;17300;50.374;8.006;2022-12-18T00:21:42;0.00;50.20
30520;DHT22;17300;50.374;8.006;2022-12-18T00:24:11;0.00;50.10
30520;DHT22;17300;50.374;8.006;2022-12-18T00:26:38;0.00;50.10
30520;DHT22;17300;50.374;8.006;2022-12-18T00:29:07;0.10;50.10
30520;DHT22;17300;50.374;8.006;2022-12-18T00:31:34;0.10;50.00
30520;DHT22;17300;50.374;8.006;2022-12-18T00:34:01;0.10;49.90
30520;DHT22;17300;50.374;8.006;2022-12-18T00:36:30;0.10;49.80
30520;DHT22;17300;50.374;8.006;2022-12-18T00:38:58;0.10;49.70
30520;DHT22;17300;50.374;8.006;2022-12-18T00:41:27;0.00;49.60
30520;DHT22;17300;50.374;8.006;2022-12-18T00:44:13;0.00;49.60
30520;DHT22;17300;50.374;8.006;2022-12-18T00:46:40;0.00;49.60
30520;DHT22;17300;50.374;8.006;2022-12-18T00:49:07;0.00;49.60
30520;DHT22;17300;50.374;8.006;2022-12-18T00:51:34;0.00;49.60
30520;DHT22;17300;50.374;8.006;2022-12-18T00:54:01;0.00;49.70
30520;DHT22;17300;50.374;8.006;2022-12-18T00:56:29;0.00;49.70
30520;DHT22;17300;50.374;8.006;2022-12-18T00:58:55;0.00;49.70
30520;DHT22;17300;50.374;8.006;2022-12-18T01:01:22;0.00;49.70
30520;DHT22;17300;50.374;8.006;2022-12-18T01:03:49;0.00;49.70
30520;DHT22;17300;50.374;8.006;2022-12-18T01:06:16;0.00;49.70
30520;DHT22;17300;50.374;8.006;2022-12-18T01:08:43;0.00;49.60
30520;DHT22;17300;50.374;8.006;2022-12-18T01:11:12;0.00;49.70
30520;DHT22;17300;50.374;8.006;2022-12-18T01:13:40;0.00;49.70
30520;DHT22;17300;50.374;8.006;2022-12-18T01:16:07;0.00;49.70
30520;DHT22;17300;50.374;8.006;2022-12-18T01:18:34;0.00;49.60
30520;DHT22;17300;50.374;8.006;2022-12-18T01:21:00;0.00;49.60
30520;DHT22;17300;50.374;8.006;2022-12-18T01:23:31;0.00;49.60
30520;DHT22;17300;50.374;8.006;2022-12-18T01:25:58;0.00;49.60
30520;DHT22;17300;50.374;8.006;2022-12-18T01:28:29;0.00;49.60
30520;DHT22;17300;50.374;8.006;2022-12-18T01:30:57;0.00;49.60
30520;DHT22;17300;50.374;8.006;2022-12-18T01:33:24;0.00;49.60
30520;DHT22;17300;50.374;8.006;2022-12-18T01:35:51;0.00;49.60
30520;DHT22;17300;50.374;8.006;2022-12-18T01:38:17;0.00;49.60
30520;DHT22;17300;50.374;8.006;2022-12-18T01:40:44;0.00;49.60
30520;DHT22;17300;50.374;8.006;2022-12-18T01:43:10;0.00;49.50
30520;DHT22;17300;50.374;8.006;2022-12-18T01:45:37;-0.10;49.30
30520;DHT22;17300;50.374;8.006;2022-12-18T01:48:07;0.00;49.40
30520;DHT22;17300;50.374;8.006;2022-12-18T01:50:37;-0.10;49.20
30520;DHT22;17300;50.374;8.006;2022-12-18T01:53:07;-0.10;49.20
30520;DHT22;17300;50.374;8.006;2022-12-18T01:55:38;-0.10;49.20
30520;DHT22;17300;50.374;8.006;2022-12-18T01:58:06;-0.10;49.10
30520;DHT22;17300;50.374;8.006;2022-12-18T02:00:34;-0.10;49.10
30520;DHT22;17300;50.374;8.006;2022-12-18T02:03:00;-0.20;49.00
30520;DHT22;17300;50.374;8.006;2022-12-18T02:05:37;-0.20;49.00
30520;DHT22;17300;50.374;8.006;2022-12-18T02:08:10;-0.20;49.00
30520;DHT22;17300;50.374;8.006;2022-12-18T02:10:46;-0.20;49.00
30520;DHT22;17300;50.374;8.006;2022-12-18T02:13:19;-0.30;48.90
30520;DHT22;17300;50.374;8.006;2022-12-18T02:15:53;-0.30;49.00
30520;DHT22;17300;50.374;8.006;2022-12-18T02:18:24;-0.30;49.00
30520;DHT22;17300;50.374;8.006;2022-12-18T02:20:57;-0.40;48.90
30520;DHT22;17300;50.374;8.006;2022-12-18T02:23:40;-0.40;48.80
30520;DHT22;17300;50.374;8.006;2022-12-18T02:26:16;-0.40;48.90
30520;DHT22;17300;50.374;8.006;2022-12-18T02:28:47;-0.40;49.00
30520;DHT22;17300;50.374;8.006;2022-12-18T02:31:19;-0.50;49.00
30520;DHT22;17300;50.374;8.006;2022-12-18T02:33:48;-0.50;49.00
30520;DHT22;17300;50.374;8.006;2022-12-18T02:36:16;-0.50;49.00
30520;DHT22;17300;50.374;8.006;2022-12-18T02:38:46;-0.50;49.00
30520;DHT22;17300;50.374;8.006;2022-12-18T02:41:15;-0.60;49.00
30520;DHT22;17300;50.374;8.006;2022-12-18T02:43:46;-0.60;49.00
30520;DHT22;17300;50.374;8.006;2022-12-18T02:46:26;-0.60;49.60
30520;DHT22;17300;50.374;8.006;2022-12-18T02:49:00;-0.60;49.10
30520;DHT22;17300;50.374;8.006;2022-12-18T02:51:31;-0.60;49.20
30520;DHT22;17300;50.374;8.006;2022-12-18T02:54:05;-0.60;49.20
30520;DHT22;17300;50.374;8.006;2022-12-18T02:56:36;-0.50;49.20
30520;DHT22;17300;50.374;8.006;2022-12-18T02:59:09;-0.60;49.20
30520;DHT22;17300;50.374;8.006;2022-12-18T03:01:45;-0.60;49.20
30520;DHT22;17300;50.374;8.006;2022-12-18T03:04:20;-0.50;49.20
30520;DHT22;17300;50.374;8.006;2022-12-18T03:06:54;-0.60;49.10
30520;DHT22;17300;50.374;8.006;2022-12-18T03:09:24;-0.50;49.10
30520;DHT22;17300;50.374;8.006;2022-12-18T03:11:59;-0.50;49.10
30520;DHT22;17300;50.374;8.006;2022-12-18T03:14:49;-0.60;49.00
30520;DHT22;17300;50.374;8.006;2022-12-18T03:17:19;-0.60;48.90
30520;DHT22;17300;50.374;8.006;2022-12-18T03:19:47;-0.60;48.90
30520;DHT22;17300;50.374;8.006;2022-12-18T03:22:16;-0.60;48.90
30520;DHT22;17300;50.374;8.006;2022-12-18T03:24:44;-0.60;48.90
30520;DHT22;17300;50.374;8.006;2022-12-18T03:27:17;-0.60;48.70
30520;DHT22;17300;50.374;8.006;2022-12-18T03:29:46;-0.70;48.50
30520;DHT22;17300;50.374;8.006;2022-12-18T03:32:17;-0.70;48.50
30520;DHT22;17300;50.374;8.006;2022-12-18T03:34:47;-0.80;48.30
30520;DHT22;17300;50.374;8.006;2022-12-18T03:37:15;-0.90;48.10
30520;DHT22;17300;50.374;8.006;2022-12-18T03:39:42;-0.90;48.00
30520;DHT22;17300;50.374;8.006;2022-12-18T03:42:16;-1.00;47.90
30520;DHT22;17300;50.374;8.006;2022-12-18T03:44:52;-1.10;47.80
30520;DHT22;17300;50.374;8.006;2022-12-18T03:47:26;-1.20;47.80
30520;DHT22;17300;50.374;8.006;2022-12-18T03:49:58;-1.20;47.90
30520;DHT22;17300;50.374;8.006;2022-12-18T03:52:33;-1.30;48.00
30520;DHT22;17300;50.374;8.006;2022-12-18T03:55:03;-1.40;47.90
30520;DHT22;17300;50.374;8.006;2022-12-18T03:57:33;-1.40;47.90
30520;DHT22;17300;50.374;8.006;2022-12-18T04:00:05;-1.50;48.00
30520;DHT22;17300;50.374;8.006;2022-12-18T04:02:32;-1.50;48.10
30520;DHT22;17300;50.374;8.006;2022-12-18T04:05:02;-1.50;48.10
30520;DHT22;17300;50.374;8.006;2022-12-18T04:07:29;-1.60;47.90
30520;DHT22;17300;50.374;8.006;2022-12-18T04:09:59;-1.70;47.70
30520;DHT22;17300;50.374;8.006;2022-12-18T04:12:29;-1.80;47.60
30520;DHT22;17300;50.374;8.006;2022-12-18T04:14:57;-1.80;47.70
30520;DHT22;17300;50.374;8.006;2022-12-18T04:17:24;-1.90;47.60
30520;DHT22;17300;50.374;8.006;2022-12-18T04:19:50;-1.90;47.70
30520;DHT22;17300;50.374;8.006;2022-12-18T04:22:17;-2.00;47.70
30520;DHT22;17300;50.374;8.006;2022-12-18T04:24:44;-2.00;47.70
30520;DHT22;17300;50.374;8.006;2022-12-18T04:27:10;-2.10;47.70
30520;DHT22;17300;50.374;8.006;2022-12-18T04:29:37;-2.10;47.70
30520;DHT22;17300;50.374;8.006;2022-12-18T04:32:05;-2.20;47.60
30520;DHT22;17300;50.374;8.006;2022-12-18T04:34:33;-2.20;47.70
30520;DHT22;17300;50.374;8.006;2022-12-18T04:36:59;-2.30;47.50
30520;DHT22;17300;50.374;8.006;2022-12-18T04:39:26;-2.40;47.50
30520;DHT22;17300;50.374;8.006;2022-12-18T04:41:53;-2.40;47.50
30520;DHT22;17300;50.374;8.006;2022-12-18T04:44:19;-2.40;47.50
30520;DHT22;17300;50.374;8.006;2022-12-18T04:46:46;-2.50;47.50
30520;DHT22;17300;50.374;8.006;2022-12-18T04:49:14;-2.50;47.50
30520;DHT22;17300;50.374;8.006;2022-12-18T04:51:40;-2.60;47.50
30520;DHT22;17300;50.374;8.006;2022-12-18T04:54:07;-2.60;47.50
30520;DHT22;17300;50.374;8.006;2022-12-18T04:56:34;-2.60;47.60
30520;DHT22;17300;50.374;8.006;2022-12-18T04:59:00;-2.70;47.50
30520;DHT22;17300;50.374;8.006;2022-12-18T05:01:27;-2.70;47.60
30520;DHT22;17300;50.374;8.006;2022-12-18T05:03:54;-2.80;47.50
30520;DHT22;17300;50.374;8.006;2022-12-18T05:06:22;-2.80;47.50
30520;DHT22;17300;50.374;8.006;2022-12-18T05:08:48;-2.80;47.50
30520;DHT22;17300;50.374;8.006;2022-12-18T05:11:15;-2.90;47.50
30520;DHT22;17300;50.374;8.006;2022-12-18T05:13:43;-2.80;47.50
30520;DHT22;17300;50.374;8.006;2022-12-18T05:16:10;-2.90;47.40
30520;DHT22;17300;50.374;8.006;2022-12-18T05:18:37;-3.00;47.40
30520;DHT22;17300;50.374;8.006;2022-12-18T05:21:04;-3.00;47.40
30520;DHT22;17300;50.374;8.006;2022-12-18T05:23:32;-3.00;47.50
30520;DHT22;17300;50.374;8.006;2022-12-18T05:26:01;-3.10;47.40
30520;DHT22;17300;50.374;8.006;2022-12-18T05:28:29;-3.10;47.40
30520;DHT22;17300;50.374;8.006;2022-12-18T05:30:58;-3.10;47.40
30520;DHT22;17300;50.374;8.006;2022-12-18T05:33:26;-3.20;48.00
30520;DHT22;17300;50.374;8.006;2022-12-18T05:35:56;-3.20;47.50
30520;DHT22;17300;50.374;8.006;2022-12-18T05:38:24;-3.20;47.50
30520;DHT22;17300;50.374;8.006;2022-12-18T05:40:52;-3.20;47.50
30520;DHT22;17300;50.374;8.006;2022-12-18T05:43:20;-3.20;47.50
30520;DHT22;17300;50.374;8.006;2022-12-18T05:45:47;-3.30;47.50
30520;DHT22;17300;50.374;8.006;2022-12-18T05:48:15;-3.30;47.50
30520;DHT22;17300;50.374;8.006;2022-12-18T05:50:43;-3.30;47.50
30520;DHT22;17300;50.374;8.006;2022-12-18T05:53:12;-3.30;47.50
30520;DHT22;17300;50.374;8.006;2022-12-18T05:55:40;-3.30;47.50
30520;DHT22;17300;50.374;8.006;2022-12-18T05:58:10;-3.40;47.40
30520;DHT22;17300;50.374;8.006;2022-12-18T06:00:38;-3.40;47.40
30520;DHT22;17300;50.374;8.006;2022-12-18T06:03:06;-3.40;47.40
30520;DHT22;17300;50.374;8.006;2022-12-18T06:05:34;-3.40;47.40
30520;DHT22;17300;50.374;8.006;2022-12-18T06:08:02;-3.50;47.30
30520;DHT22;17300;50.374;8.006;2022-12-18T06:10:28;-3.50;47.30
30520;DHT22;17300;50.374;8.006;2022-12-18T06:12:55;-3.50;47.30
30520;DHT22;17300;50.374;8.006;2022-12-18T06:15:23;-3.60;47.30
30520;DHT22;17300;50.374;8.006;2022-12-18T06:17:50;-3.60;47.30
30520;DHT22;17300;50.374;8.006;2022-12-18T06:20:16;-3.60;47.40
30520;DHT22;17300;50.374;8.006;2022-12-18T06:22:43;-3.60;47.40
30520;DHT22;17300;50.374;8.006;2022-12-18T06:25:10;-3.70;47.30
30520;DHT22;17300;50.374;8.006;2022-12-18T06:27:37;-3.70;47.30
30520;DHT22;17300;50.374;8.006;2022-12-18T06:30:05;-3.70;47.30
30520;DHT22;17300;50.374;8.006;2022-12-18T06:32:33;-3.70;47.40
30520;DHT22;17300;50.374;8.006;2022-12-18T06:35:00;-3.80;47.30
30520;DHT22;17300;50.374;8.006;2022-12-18T06:37:27;-3.80;47.30
30520;DHT22;17300;50.374;8.006;2022-12-18T06:39:53;-3.80;47.40
30520;DHT22;17300;50.374;8.006;2022-12-18T06:42:22;-3.80;47.30
30520;DHT22;17300;50.374;8.006;2022-12-18T06:44:48;-3.90;47.10
30520;DHT22;17300;50.374;8.006;2022-12-18T06:47:15;-3.90;47.20
30520;DHT22;17300;50.374;8.006;2022-12-18T06:49:43;-3.90;47.20
30520;DHT22;17300;50.374;8.006;2022-12-18T06:52:10;-3.90;47.20
30520;DHT22;17300;50.374;8.006;2022-12-18T06:54:36;-3.90;47.20
30520;DHT22;17300;50.374;8.006;2022-12-18T06:57:03;-3.90;47.20
30520;DHT22;17300;50.374;8.006;2022-12-18T06:59:30;-4.00;47.10
30520;DHT22;17300;50.374;8.006;2022-12-18T07:01:56;-4.00;47.20
30520;DHT22;17300;50.374;8.006;2022-12-18T07:04:27;-4.00;47.20
30520;DHT22;17300;50.374;8.006;2022-12-18T07:06:55;-4.00;47.30
30520;DHT22;17300;50.374;8.006;2022-12-18T07:09:22;-4.00;47.30
30520;DHT22;17300;50.374;8.006;2022-12-18T07:11:49;-4.00;47.20
30520;DHT22;17300;50.374;8.006;2022-12-18T07:14:15;-4.00;47.30
30520;DHT22;17300;50.374;8.006;2022-12-18T07:16:42;-4.00;47.30
30520;DHT22;17300;50.374;8.006;2022-12-18T07:19:09;-4.00;47.30
30520;DHT22;17300;50.374;8.006;2022-12-18T07:21:36;-4.00;47.30
30520;DHT22;17300;50.374;8.006;2022-12-18T07:24:05;-4.00;47.30
30520;DHT22;17300;50.374;8.006;2022-12-18T07:26:32;-4.10;47.10
30520;DHT22;17300;50.374;8.006;2022-12-18T07:28:59;-4.00;47.10
30520;DHT22;17300;50.374;8.006;2022-12-18T07:31:26;-4.10;47.10
30520;DHT22;17300;50.374;8.006;2022-12-18T07:33:53;-4.00;47.20
30520;DHT22;17300;50.374;8.006;2022-12-18T07:36:20;-4.00;47.30
30520;DHT22;17300;50.374;8.006;2022-12-18T07:38:47;-4.10;47.20
30520;DHT22;17300;50.374;8.006;2022-12-18T07:41:15;-4.10;47.30
30520;DHT22;17300;50.374;8.006;2022-12-18T07:43:42;-4.10;47.40
30520;DHT22;17300;50.374;8.006;2022-12-18T07:46:09;-4.10;47.40
30520;DHT22;17300;50.374;8.006;2022-12-18T07:48:36;-4.00;47.50
30520;DHT22;17300;50.374;8.006;2022-12-18T07:51:05;-4.00;47.50
30520;DHT22;17300;50.374;8.006;2022-12-18T07:53:33;-4.00;47.50
30520;DHT22;17300;50.374;8.006;2022-12-18T07:56:01;-3.90;47.60
30520;DHT22;17300;50.374;8.006;2022-12-18T07:58:29;-3.90;47.60
30520;DHT22;17300;50.374;8.006;2022-12-18T08:01:02;-4.00;47.50
30520;DHT22;17300;50.374;8.006;2022-12-18T08:03:29;-3.90;47.60
30520;DHT22;17300;50.374;8.006;2022-12-18T08:05:59;-3.90;47.60
30520;DHT22;17300;50.374;8.006;2022-12-18T08:08:25;-3.90;47.80
30520;DHT22;17300;50.374;8.006;2022-12-18T08:10:52;-3.80;47.80
30520;DHT22;17300;50.374;8.006;2022-12-18T08:13:19;-3.80;47.80
30520;DHT22;17300;50.374;8.006;2022-12-18T08:15:54;-3.70;47.90
30520;DHT22;17300;50.374;8.006;2022-12-18T08:18:21;-3.70;47.90
30520;DHT22;17300;50.374;8.006;2022-12-18T08:20:48;-3.70;47.90
30520;DHT22;17300;50.374;8.006;2022-12-18T08:23:15;-3.60;48.00
30520;DHT22;17300;50.374;8.006;2022-12-18T08:25:41;-3.50;48.10
30520;DHT22;17300;50.374;8.006;2022-12-18T08:28:09;-3.50;48.10
30520;DHT22;17300;50.374;8.006;2022-12-18T08:30:36;-3.40;48.20
30520;DHT22;17300;50.374;8.006;2022-12-18T08:33:04;-3.40;48.20
30520;DHT22;17300;50.374;8.006;2022-12-18T08:35:34;-3.30;48.20
30520;DHT22;17300;50.374;8.006;2022-12-18T08:38:01;-3.20;48.30
30520;DHT22;17300;50.374;8.006;2022-12-18T08:40:28;-3.20;48.30
30520;DHT22;17300;50.374;8.006;2022-12-18T08:42:55;-3.10;48.30
30520;DHT22;17300;50.374;8.006;2022-12-18T08:45:39;-3.00;48.50
30520;DHT22;17300;50.374;8.006;2022-12-18T08:48:07;-3.00;48.50
30520;DHT22;17300;50.374;8.006;2022-12-18T08:50:34;-2.90;48.50
30520;DHT22;17300;50.374;8.006;2022-12-18T08:53:00;-2.90;48.50
30520;DHT22;17300;50.374;8.006;2022-12-18T08:55:27;-2.80;48.60
30520;DHT22;17300;50.374;8.006;2022-12-18T08:57:54;-2.60;48.80
30520;DHT22;17300;50.374;8.006;2022-12-18T09:00:21;-2.60;48.80
30520;DHT22;17300;50.374;8.006;2022-12-18T09:02:47;-2.40;48.90
30520;DHT22;17300;50.374;8.006;2022-12-18T09:05:15;-2.30;49.00
30520;DHT22;17300;50.374;8.006;2022-12-18T09:07:42;-2.20;49.60
30520;DHT22;17300;50.374;8.006;2022-12-18T09:10:09;-2.10;49.10
30520;DHT22;17300;50.374;8.006;2022-12-18T09:12:36;-2.00;49.20
30520;DHT22;17300;50.374;8.006;2022-12-18T09:15:03;-1.90;49.20
30520;DHT22;17300;50.374;8.006;2022-12-18T09:17:30;-1.80;49.30
30520;DHT22;17300;50.374;8.006;2022-12-18T09:19:56;-1.70;49.10
30520;DHT22;17300;50.374;8.006;2022-12-18T09:22:24;-1.60;49.20
30520;DHT22;17300;50.374;8.006;2022-12-18T09:24:51;-1.60;49.10
30520;DHT22;17300;50.374;8.006;2022-12-18T09:27:18;-1.50;49.20
30520;DHT22;17300;50.374;8.006;2022-12-18T09:29:44;-1.40;49.20
30520;DHT22;17300;50.374;8.006;2022-12-18T09:32:11;-1.30;49.30
30520;DHT22;17300;50.374;8.006;2022-12-18T09:34:37;-1.20;49.50
30520;DHT22;17300;50.374;8.006;2022-12-18T09:37:05;-1.10;49.60
30520;DHT22;17300;50.374;8.006;2022-12-18T09:39:33;-0.90;50.00
30520;DHT22;17300;50.374;8.006;2022-12-18T09:41:59;-0.70;50.20
30520;DHT22;17300;50.374;8.006;2022-12-18T09:44:29;-0.60;50.30
30520;DHT22;17300;50.374;8.006;2022-12-18T09:47:04;-0.40;50.40
30520;DHT22;17300;50.374;8.006;2022-12-18T09:49:36;-0.20;50.40
30520;DHT22;17300;50.374;8.006;2022-12-18T09:52:08;0.00;50.40
30520;DHT22;17300;50.374;8.006;2022-12-18T09:54:39;0.20;50.30
30520;DHT22;17300;50.374;8.006;2022-12-18T09:57:13;0.40;50.20
30520;DHT22;17300;50.374;8.006;2022-12-18T09:59:41;0.50;50.10
30520;DHT22;17300;50.374;8.006;2022-12-18T10:02:14;0.60;50.00
30520;DHT22;17300;50.374;8.006;2022-12-18T10:04:41;0.80;49.90
30520;DHT22;17300;50.374;8.006;2022-12-18T10:07:14;1.00;50.30
30520;DHT22;17300;50.374;8.006;2022-12-18T10:09:53;1.20;51.10
30520;DHT22;17300;50.374;8.006;2022-12-18T10:12:26;1.50;51.80
30520;DHT22;17300;50.374;8.006;2022-12-18T10:14:58;1.90;52.10
30520;DHT22;17300;50.374;8.006;2022-12-18T10:17:33;2.20;52.10
30520;DHT22;17300;50.374;8.006;2022-12-18T10:20:05;2.50;51.60
30520;DHT22;17300;50.374;8.006;2022-12-18T10:22:44;2.80;51.30
30520;DHT22;17300;50.374;8.006;2022-12-18T10:25:20;3.00;50.60
30520;DHT22;17300;50.374;8.006;2022-12-18T10:27:48;3.20;50.20
30520;DHT22;17300;50.374;8.006;2022-12-18T10:30:21;3.30;49.90
30520;DHT22;17300;50.374;8.006;2022-12-18T10:32:48;3.40;49.60
30520;DHT22;17300;50.374;8.006;2022-12-18T10:35:20;3.50;49.30
30520;DHT22;17300;50.374;8.006;2022-12-18T10:38:01;3.50;49.00
30520;DHT22;17300;50.374;8.006;2022-12-18T10:40:29;3.50;48.80
30520;DHT22;17300;50.374;8.006;2022-12-18T10:43:11;3.60;49.00
30520;DHT22;17300;50.374;8.006;2022-12-18T10:45:38;3.60;48.80
30520;DHT22;17300;50.374;8.006;2022-12-18T10:48:17;3.60;49.20
30520;DHT22;17300;50.374;8.006;2022-12-18T10:50:48;3.70;49.20
30520;DHT22;17300;50.374;8.006;2022-12-18T10:53:20;3.80;49.70
30520;DHT22;17300;50.374;8.006;2022-12-18T10:55:49;3.90;50.00
30520;DHT22;17300;50.374;8.006;2022-12-18T10:58:23;4.00;50.10
30520;DHT22;17300;50.374;8.006;2022-12-18T11:01:03;4.20;50.30
30520;DHT22;17300;50.374;8.006;2022-12-18T11:03:32;4.40;50.30
30520;DHT22;17300;50.374;8.006;2022-12-18T11:06:08;4.60;51.10
30520;DHT22;17300;50.374;8.006;2022-12-18T11:08:35;4.80;51.60
30520;DHT22;17300;50.374;8.006;2022-12-18T11:11:07;5.10;51.20
30520;DHT22;17300;50.374;8.006;2022-12-18T11:13:41;5.30;50.80
30520;DHT22;17300;50.374;8.006;2022-12-18T11:16:18;5.50;50.60
30520;DHT22;17300;50.374;8.006;2022-12-18T11:18:45;5.80;50.10
30520;DHT22;17300;50.374;8.006;2022-12-18T11:21:12;5.90;50.00
30520;DHT22;17300;50.374;8.006;2022-12-18T11:23:46;6.10;49.60
30520;DHT22;17300;50.374;8.006;2022-12-18T11:26:15;6.20;49.00
30520;DHT22;17300;50.374;8.006;2022-12-18T11:28:45;6.30;49.00
30520;DHT22;17300;50.374;8.006;2022-12-18T11:31:22;6.40;48.70
30520;DHT22;17300;50.374;8.006;2022-12-18T11:33:54;6.40;48.20
30520;DHT22;17300;50.374;8.006;2022-12-18T11:36:23;6.50;48.00
30520;DHT22;17300;50.374;8.006;2022-12-18T11:38:52;6.50;47.90
30520;DHT22;17300;50.374;8.006;2022-12-18T11:41:26;6.40;47.60
30520;DHT22;17300;50.374;8.006;2022-12-18T11:44:18;6.40;47.50
30520;DHT22;17300;50.374;8.006;2022-12-18T11:46:52;6.40;47.70
30520;DHT22;17300;50.374;8.006;2022-12-18T11:49:24;6.40;47.40
30520;DHT22;17300;50.374;8.006;2022-12-18T11:51:57;6.30;47.30
30520;DHT22;17300;50.374;8.006;2022-12-18T11:54:24;6.30;47.30
30520;DHT22;17300;50.374;8.006;2022-12-18T11:56:57;6.20;47.30
30520;DHT22;17300;50.374;8.006;2022-12-18T11:59:32;6.20;47.60
30520;DHT22;17300;50.374;8.006;2022-12-18T12:02:17;6.10;46.80
30520;DHT22;17300;50.374;8.006;2022-12-18T12:05:00;6.10;46.60
30520;DHT22;17300;50.374;8.006;2022-12-18T12:07:38;6.00;46.60
30520;DHT22;17300;50.374;8.006;2022-12-18T12:10:22;5.90;46.30
30520;DHT22;17300;50.374;8.006;2022-12-18T12:13:02;5.80;46.10
30520;DHT22;17300;50.374;8.006;2022-12-18T12:15:37;5.60;46.80
30520;DHT22;17300;50.374;8.006;2022-12-18T12:18:08;5.50;46.40
30520;DHT22;17300;50.374;8.006;2022-12-18T12:20:46;5.40;46.50
30520;DHT22;17300;50.374;8.006;2022-12-18T12:23:21;5.30;46.60
30520;DHT22;17300;50.374;8.006;2022-12-18T12:25:52;5.20;46.50
30520;DHT22;17300;50.374;8.006;2022-12-18T12:28:42;5.10;46.60
30520;DHT22;17300;50.374;8.006;2022-12-18T12:31:21;5.00;46.50
30520;DHT22;17300;50.374;8.006;2022-12-18T12:33:59;5.00;46.70
30520;DHT22;17300;50.374;8.006;2022-12-18T12:36:34;4.80;46.60
30520;DHT22;17300;50.374;8.006;2022-12-18T12:39:07;4.80;46.80
30520;DHT22;17300;50.374;8.006;2022-12-18T12:41:37;4.70;46.90
30520;DHT22;17300;50.374;8.006;2022-12-18T12:44:43;4.60;46.90
30520;DHT22;17300;50.374;8.006;2022-12-18T12:47:16;4.60;46.90
30520;DHT22;17300;50.374;8.006;2022-12-18T12:49:45;4.50;46.90
30520;DHT22;17300;50.374;8.006;2022-12-18T12:52:19;4.40;47.00
30520;DHT22;17300;50.374;8.006;2022-12-18T12:54:48;4.30;47.00
30520;DHT22;17300;50.374;8.006;2022-12-18T12:57:19;4.30;47.10
30520;DHT22;17300;50.374;8.006;2022-12-18T12:59:52;4.20;47.20
30520;DHT22;17300;50.374;8.006;2022-12-18T13:02:29;4.20;47.30
30520;DHT22;17300;50.374;8.006;2022-12-18T13:04:59;4.10;47.30
30520;DHT22;17300;50.374;8.006;2022-12-18T13:07:31;4.10;47.40
30520;DHT22;17300;50.374;8.006;2022-12-18T13:13:03;4.10;47.50
30520;DHT22;17300;50.374;8.006;2022-12-18T13:15:34;4.10;47.60
30520;DHT22;17300;50.374;8.006;2022-12-18T13:18:23;4.00;47.50
30520;DHT22;17300;50.374;8.006;2022-12-18T13:23:38;3.90;47.60
30520;DHT22;17300;50.374;8.006;2022-12-18T13:26:31;3.90;47.70
30520;DHT22;17300;50.374;8.006;2022-12-18T13:29:00;3.90;47.70
30520;DHT22;17300;50.374;8.006;2022-12-18T13:31:59;3.90;47.80
30520;DHT22;17300;50.374;8.006;2022-12-18T13:34:27;3.80;47.70
30520;DHT22;17300;50.374;8.006;2022-12-18T13:36:57;3.80;47.70
30520;DHT22;17300;50.374;8.006;2022-12-18T13:39:44;3.80;47.60
30520;DHT22;17300;50.374;8.006;2022-12-18T13:42:39;3.70;47.50
30520;DHT22;17300;50.374;8.006;2022-12-18T13:45:40;3.70;47.50
30520;DHT22;17300;50.374;8.006;2022-12-18T13:48:19;3.60;47.50
30520;DHT22;17300;50.374;8.006;2022-12-18T13:50:55;3.50;47.50
30520;DHT22;17300;50.374;8.006;2022-12-18T13:53:26;3.50;47.50
30520;DHT22;17300;50.374;8.006;2022-12-18T13:55:55;3.40;47.40
30520;DHT22;17300;50.374;8.006;2022-12-18T13:58:21;3.30;47.50
30520;DHT22;17300;50.374;8.006;2022-12-18T14:00:48;3.30;47.70
30520;DHT22;17300;50.374;8.006;2022-12-18T14:03:18;3.20;47.70
30520;DHT22;17300;50.374;8.006;2022-12-18T14:05:46;3.20;47.80
30520;DHT22;17300;50.374;8.006;2022-12-18T14:08:18;3.20;47.80
30520;DHT22;17300;50.374;8.006;2022-12-18T14:10:49;3.20;47.70
30520;DHT22;17300;50.374;8.006;2022-12-18T14:13:23;3.10;47.50
30520;DHT22;17300;50.374;8.006;2022-12-18T14:15:50;3.10;47.40
30520;DHT22;17300;50.374;8.006;2022-12-18T14:18:20;3.00;47.40
30520;DHT22;17300;50.374;8.006;2022-12-18T14:20:49;2.90;47.30
30520;DHT22;17300;50.374;8.006;2022-12-18T14:23:30;2.80;47.40
30520;DHT22;17300;50.374;8.006;2022-12-18T14:25:57;2.80;47.40
30520;DHT22;17300;50.374;8.006;2022-12-18T14:28:26;2.70;47.40
30520;DHT22;17300;50.374;8.006;2022-12-18T14:30:53;2.70;47.40
30520;DHT22;17300;50.374;8.006;2022-12-18T14:33:22;2.60;47.40
30520;DHT22;17300;50.374;8.006;2022-12-18T14:35:55;2.60;47.50
30520;DHT22;17300;50.374;8.006;2022-12-18T14:38:28;2.50;47.50
30520;DHT22;17300;50.374;8.006;2022-12-18T14:40:57;2.40;47.50
30520;DHT22;17300;50.374;8.006;2022-12-18T14:43:26;2.40;47.50
30520;DHT22;17300;50.374;8.006;2022-12-18T14:45:54;2.40;47.60
30520;DHT22;17300;50.374;8.006;2022-12-18T14:48:36;2.30;47.50
30520;DHT22;17300;50.374;8.006;2022-12-18T14:51:06;2.30;47.50
30520;DHT22;17300;50.374;8.006;2022-12-18T14:53:36;2.30;48.10
30520;DHT22;17300;50.374;8.006;2022-12-18T14:56:10;2.20;47.40
30520;DHT22;17300;50.374;8.006;2022-12-18T14:58:44;2.10;47.40
30520;DHT22;17300;50.374;8.006;2022-12-18T15:01:18;2.10;47.40
30520;DHT22;17300;50.374;8.006;2022-12-18T15:03:45;2.00;47.40
30520;DHT22;17300;50.374;8.006;2022-12-18T15:06:16;2.00;47.40
30520;DHT22;17300;50.374;8.006;2022-12-18T15:08:43;1.90;47.40
30520;DHT22;17300;50.374;8.006;2022-12-18T15:11:25;1.90;47.50
30520;DHT22;17300;50.374;8.006;2022-12-18T15:13:54;1.80;47.60
30520;DHT22;17300;50.374;8.006;2022-12-18T15:16:21;1.80;47.60
30520;DHT22;17300;50.374;8.006;2022-12-18T15:18:48;1.70;47.50
30520;DHT22;17300;50.374;8.006;2022-12-18T15:21:18;1.70;47.40
30520;DHT22;17300;50.374;8.006;2022-12-18T15:23:48;1.60;47.40
30520;DHT22;17300;50.374;8.006;2022-12-18T15:26:16;1.60;47.50
30520;DHT22;17300;50.374;8.006;2022-12-18T15:28:45;1.60;47.60
30520;DHT22;17300;50.374;8.006;2022-12-18T15:31:30;1.50;47.60
30520;DHT22;17300;50.374;8.006;2022-12-18T15:34:10;1.50;47.70
30520;DHT22;17300;50.374;8.006;2022-12-18T15:36:37;1.50;47.60
30520;DHT22;17300;50.374;8.006;2022-12-18T15:39:04;1.50;47.70
30520;DHT22;17300;50.374;8.006;2022-12-18T15:41:32;1.40;47.70
30520;DHT22;17300;50.374;8.006;2022-12-18T15:43:59;1.40;47.70
30520;DHT22;17300;50.374;8.006;2022-12-18T15:46:26;1.40;47.80
30520;DHT22;17300;50.374;8.006;2022-12-18T15:48:55;1.30;47.80
30520;DHT22;17300;50.374;8.006;2022-12-18T15:51:23;1.30;47.80
30520;DHT22;17300;50.374;8.006;2022-12-18T15:53:54;1.30;47.90
30520;DHT22;17300;50.374;8.006;2022-12-18T15:56:21;1.30;47.90
30520;DHT22;17300;50.374;8.006;2022-12-18T15:59:09;1.30;48.00
30520;DHT22;17300;50.374;8.006;2022-12-18T16:01:36;1.30;48.10
30520;DHT22;17300;50.374;8.006;2022-12-18T16:04:04;1.20;48.00